TFM - Tactical Decision Aid (Experimental) INFO Settings
ID: Runway Winds: CIG/VIS Threshold: METAR Board: Map:

KATL - Atlanta-Hartsfield Jackson Intl

Updated at: 2043 UTC 24 Jun 2017
Latest TAF at: 1933 UTC 24 Jun 2017

TAF Board

Time2039Z24/21Z24/22Z24/23Z25/00Z25/01Z25/02Z25/03Z25/04Z25/05Z25/06Z25/07Z25/08Z25/09Z
TypeOBSPRVL
  [TEMP]  
PRVL
  [TEMP]  
PRVL
  [TEMP]  
PRVLPRVLPRVLPRVLPRVLPRVLPRVLPRVLPRVLPRVL
VIS2>6
  [3]  
>6
  [3]  
>6
  [3]  
>6>6>6>6>6>6>6>6>6>6
CIG4225
  [25]  
25
  [25]  
25
  [25]  
404040404040250250250250
CoverOVCBKN
  [BKN]  
BKN
  [BKN]  
BKN
  [BKN]  
BKNBKNBKNBKNBKNBKNBKNBKNBKNBKN
FltCatIFRMVFR
  [MVFR]  
MVFR
  [MVFR]  
MVFR
  [MVFR]  
VFRVFRVFRVFRVFRVFRVFRVFRVFRVFR
WX+RA BRVCSH
  [TSRA BR]  
VCSH
  [TSRA BR]  
VCSH
  [TSRA BR]  
--------------------
WDirVRB220
[VRB]
220
[VRB]
220
[VRB]
280280280280280280320320320320
WSpd34
  [15]  
4
  [15]  
4
  [15]  
5555558888
WGst17--
  [25]  
--
  [25]  
--
  [25]  
--------------------
TAF
KATL 241933Z 2420/2524 22004KT P6SM VCSH BKN025
  TEMPO 2420/2424 VRB15G25KT 3SM TSRA BR BKN025CB
  FM250000 28005KT P6SM BKN040
  FM250600 32008KT P6SM SCT040 BKN250
  FM251400 32010KT P6SM FEW035 SCT100
  FM251800 32014G21KT P6SM SCT100


METAR
KATL 242039Z VRB03G17KT 2SM R09R/3000VP6000FT +RA BR SCT025 BKN042 OVC100 26/23 A3001 RMK AO2 RAB11 P0003 T02560233
KATL 242037Z 29012G17KT 1 1/2SM R09R/4500VP6000FT +RA BR FEW037 SCT044 BKN090 26/24 A3001 RMK AO2 RAB11 P0001 T02610239
KATL 241952Z 24007KT 10SM SCT032 BKN055 BKN120 28/23 A3001 RMK AO2 SLP153 T02780228

TAF/METAR Board Legend

Potential Impact
  None Marginal Slight Moderate High
Visibility (sm) >5 3≤X≤5 1≤X<3 0.5≤X<1 <0.5
Ceiling (100 ft) >30 10≤X≤30 4≤X<10 2≤X<4 <2
Wind Speed (kt) <10 10≤X<20 20≤X<30 ≥30
Wind Gust (kt) <15 15≤X<25 25≤X<35 ≥35
Weather No Wx Reported VCTS -TS,-FZRA TS,FZRA +TS,+FZRA



Page loaded:  20:43 UTC  |   01:43 PM Pacific  |   02:43 PM Mountain  |   03:43 PM Central  |   04:43 PM Eastern

 

ADVISORIES

FORECASTS

FORECASTS

OBSERVATIONS

USER TOOLS

ABOUT US